Time;durP1;ratioP1;P1;durP2;ratioP2;P2;SDS_P1;SDS_P2;PMS_P1;PMS_P2;Temp;Humidity;BMP_temperature;BMP_pressure;BME280_temperature;BME280_humidity;BME280_pressure;Samples;Min_cycle;Max_cycle;Signal;HPM_P1;HPM_P2
2023/03/09 00:00:30;;;;;;;3.07;2.13;;;12.10;99.90;;;;;;5008846;28;20685;-67
2023/03/09 00:02:56;;;;;;;3.20;1.90;;;11.90;99.90;;;;;;5008128;28;20214;-68
2023/03/09 00:05:22;;;;;;;1.53;1.17;;;12.00;99.90;;;;;;5008661;28;20191;-67
2023/03/09 00:07:47;;;;;;;3.47;2.00;;;11.90;99.90;;;;;;5008426;28;20193;-67
2023/03/09 00:10:15;;;;;;;5.57;1.80;;;11.90;99.90;;;;;;5006876;28;20229;-67
2023/03/09 00:12:41;;;;;;;2.28;1.38;;;11.90;99.90;;;;;;5023236;28;20214;-67
2023/03/09 00:15:08;;;;;;;3.17;1.30;;;12.10;99.90;;;;;;5008327;28;20273;-67
2023/03/09 00:17:34;;;;;;;2.97;1.20;;;11.90;99.90;;;;;;5007427;28;20233;-67
2023/03/09 00:20:16;;;;;;;2.80;1.50;;;11.70;99.90;;;;;;5009376;28;20534;-67
2023/03/09 00:22:46;;;;;;;3.40;1.27;;;11.80;99.90;;;;;;5008279;28;20194;-68
2023/03/09 00:25:13;;;;;;;1.10;0.98;;;11.80;99.90;;;;;;5007005;28;20186;-67
2023/03/09 00:27:41;;;;;;;1.58;1.05;;;11.80;99.90;;;;;;5008128;28;20190;-69
2023/03/09 00:30:09;;;;;;;2.53;1.00;;;11.90;99.90;;;;;;5008761;28;20218;-69
2023/03/09 00:32:35;;;;;;;1.77;1.35;;;12.00;99.90;;;;;;5012410;28;20265;-67
2023/03/09 00:35:00;;;;;;;1.10;1.00;;;11.80;99.90;;;;;;5010425;28;20535;-67
2023/03/09 00:37:26;;;;;;;3.00;1.30;;;11.80;99.90;;;;;;5012356;28;20217;-67
2023/03/09 00:39:51;;;;;;;1.10;1.00;;;11.80;99.90;;;;;;5011787;28;20202;-68
2023/03/09 00:42:17;;;;;;;1.20;1.10;;;11.70;99.90;;;;;;5009966;28;20231;-67
2023/03/09 00:44:43;;;;;;;1.27;1.17;;;11.60;99.90;;;;;;5012588;28;20209;-67
2023/03/09 00:47:08;;;;;;;1.93;1.50;;;11.80;99.90;;;;;;5012498;28;20812;-69
2023/03/09 00:49:34;;;;;;;1.03;0.93;;;11.60;99.90;;;;;;5010025;28;20207;-67
2023/03/09 00:51:59;;;;;;;0.70;0.70;;;11.60;99.90;;;;;;5010974;28;20222;-67
2023/03/09 00:54:25;;;;;;;1.37;1.00;;;11.60;99.90;;;;;;5009742;28;20208;-69
2023/03/09 00:56:51;;;;;;;2.23;0.80;;;11.80;99.90;;;;;;5010325;28;20197;-69
2023/03/09 00:59:17;;;;;;;2.87;0.90;;;11.80;99.90;;;;;;5012178;28;20267;-69
2023/03/09 01:01:42;;;;;;;1.43;0.80;;;11.90;99.90;;;;;;5011308;28;20835;-69
2023/03/09 01:04:08;;;;;;;1.37;0.93;;;11.90;99.90;;;;;;5013114;28;20198;-69
2023/03/09 01:06:34;;;;;;;1.05;0.70;;;11.60;99.90;;;;;;5012147;28;20190;-68
2023/03/09 01:09:00;;;;;;;1.13;0.60;;;11.90;99.90;;;;;;5010592;28;20302;-69
2023/03/09 01:11:26;;;;;;;1.53;0.80;;;11.80;99.90;;;;;;5012406;28;20225;-70
2023/03/09 01:13:53;;;;;;;1.55;0.60;;;11.70;99.90;;;;;;5012391;28;20186;-67
2023/03/09 01:16:18;;;;;;;1.00;0.63;;;11.50;99.90;;;;;;5012250;28;20269;-70
2023/03/09 01:18:44;;;;;;;0.57;0.40;;;11.70;99.90;;;;;;5011478;28;20301;-67
2023/03/09 01:21:10;;;;;;;5.83;0.60;;;11.60;99.90;;;;;;5011987;28;20194;-69
2023/03/09 01:23:38;;;;;;;0.60;0.40;;;11.30;99.90;;;;;;5012383;28;20189;-67
2023/03/09 01:26:04;;;;;;;2.70;0.70;;;11.30;99.90;;;;;;5010046;28;20193;-67
2023/03/09 01:28:30;;;;;;;0.60;0.40;;;11.30;99.90;;;;;;5011168;28;20189;-67
2023/03/09 01:30:56;;;;;;;0.60;0.50;;;11.20;99.90;;;;;;5011393;28;20268;-66
2023/03/09 01:33:21;;;;;;;0.60;0.50;;;11.30;99.90;;;;;;5011143;28;20224;-68
2023/03/09 01:35:47;;;;;;;1.40;0.50;;;11.20;99.90;;;;;;5010852;28;20193;-68
2023/03/09 01:38:13;;;;;;;0.70;0.60;;;11.40;99.90;;;;;;5011659;28;20189;-68
2023/03/09 01:40:38;;;;;;;0.63;0.50;;;11.30;99.90;;;;;;5011381;28;20235;-68
2023/03/09 01:43:42;;;;;;;0.60;0.50;;;11.20;99.90;;;;;;5011007;28;20189;-68
2023/03/09 01:46:35;;;;;;;0.70;0.60;;;11.50;99.90;;;;;;5009962;28;20195;-68
2023/03/09 01:49:04;;;;;;;0.65;0.50;;;11.40;99.90;;;;;;5010346;28;20233;-68
2023/03/09 01:52:09;;;;;;;0.60;0.50;;;11.10;99.90;;;;;;5011028;28;20687;-67
2023/03/09 01:54:38;;;;;;;0.80;0.45;;;11.10;99.90;;;;;;5009421;28;20189;-69
2023/03/09 01:57:14;;;;;;;0.77;0.50;;;11.30;99.90;;;;;;5010795;28;20185;-68
2023/03/09 01:59:42;;;;;;;0.88;0.65;;;11.10;99.90;;;;;;5009646;28;20206;-68
2023/03/09 02:02:08;;;;;;;0.60;0.50;;;10.80;99.90;;;;;;5010850;28;20618;-68
2023/03/09 02:04:43;;;;;;;0.60;0.50;;;11.00;99.90;;;;;;5010360;28;20193;-68
2023/03/09 02:07:09;;;;;;;0.60;0.50;;;11.10;99.90;;;;;;5009972;28;20198;-68
2023/03/09 02:09:41;;;;;;;1.20;0.80;;;10.90;99.90;;;;;;5010042;28;20218;-68
2023/03/09 02:12:09;;;;;;;0.60;0.50;;;10.70;99.90;;;;;;5009018;28;20208;-68
2023/03/09 02:14:35;;;;;;;0.90;0.47;;;11.10;99.90;;;;;;5010876;28;20190;-68
2023/03/09 02:17:01;;;;;;;0.80;0.50;;;11.10;99.90;;;;;;5010707;28;20178;-68
2023/03/09 02:19:40;;;;;;;0.60;0.40;;;10.60;99.90;;;;;;5007250;28;20313;-68
2023/03/09 02:22:06;;;;;;;0.68;0.50;;;10.80;99.90;;;;;;5011221;28;20237;-68
2023/03/09 02:24:55;;;;;;;1.53;0.60;;;10.80;99.90;;;;;;5008688;28;20221;-68
2023/03/09 02:27:27;;;;;;;0.60;0.50;;;10.70;99.90;;;;;;5007972;28;20240;-68
2023/03/09 02:29:54;;;;;;;0.60;0.50;;;10.50;99.90;;;;;;5007344;28;20209;-67
2023/03/09 02:32:20;;;;;;;0.60;0.43;;;10.70;99.90;;;;;;5010429;28;20687;-68
2023/03/09 02:34:45;;;;;;;1.13;0.50;;;10.40;99.90;;;;;;5007800;28;20227;-68
2023/03/09 02:37:29;;;;;;;0.70;0.53;;;10.50;99.90;;;;;;5009457;28;20513;-68
2023/03/09 02:40:04;;;;;;;0.50;0.40;;;10.70;99.90;;;;;;5010918;28;20567;-68
2023/03/09 02:42:30;;;;;;;0.65;0.40;;;10.40;99.90;;;;;;5010031;28;20272;-68
2023/03/09 02:44:57;;;;;;;0.67;0.50;;;10.30;99.90;;;;;;5010422;28;20272;-68
2023/03/09 02:47:23;;;;;;;0.70;0.47;;;9.90;99.90;;;;;;5009952;28;20613;-67
2023/03/09 02:49:49;;;;;;;0.50;0.40;;;10.80;99.90;;;;;;5009989;28;20216;-68
2023/03/09 02:52:15;;;;;;;0.60;0.50;;;10.40;99.90;;;;;;5041793;28;20233;-68
2023/03/09 02:54:41;;;;;;;0.87;0.50;;;10.60;99.90;;;;;;5008064;28;20272;-68
2023/03/09 02:57:06;;;;;;;0.70;0.40;;;10.30;99.90;;;;;;5009827;28;20185;-68
2023/03/09 02:59:33;;;;;;;0.67;0.50;;;10.70;99.90;;;;;;5010686;28;20636;-67
2023/03/09 03:01:58;;;;;;;0.60;0.40;;;10.80;99.90;;;;;;5009869;28;20446;-68
2023/03/09 03:04:24;;;;;;;1.17;0.50;;;10.80;99.90;;;;;;5010807;28;20220;-67
2023/03/09 03:06:50;;;;;;;1.33;0.50;;;10.70;99.90;;;;;;5010016;28;20193;-68
2023/03/09 03:09:15;;;;;;;1.83;0.60;;;10.60;99.90;;;;;;5008668;28;20216;-68
2023/03/09 03:11:41;;;;;;;1.00;0.60;;;10.70;99.90;;;;;;5009989;28;20220;-68
2023/03/09 03:14:07;;;;;;;0.60;0.50;;;10.80;99.90;;;;;;5010053;28;20264;-67
2023/03/09 03:16:35;;;;;;;3.43;0.60;;;10.80;99.90;;;;;;5008813;28;21016;-68
2023/03/09 03:19:02;;;;;;;0.80;0.60;;;10.80;99.90;;;;;;5010418;28;20222;-68
2023/03/09 03:21:28;;;;;;;0.75;0.60;;;10.90;99.90;;;;;;5008255;28;20244;-68
2023/03/09 03:23:54;;;;;;;1.30;0.63;;;11.20;99.90;;;;;;5008960;28;20829;-68
2023/03/09 03:26:19;;;;;;;0.70;0.50;;;10.90;99.90;;;;;;5008641;28;20225;-69
2023/03/09 03:28:45;;;;;;;3.03;0.70;;;10.90;99.90;;;;;;5007611;28;20210;-69
2023/03/09 03:31:11;;;;;;;0.60;0.50;;;11.10;99.90;;;;;;5009121;28;20244;-68
2023/03/09 03:33:37;;;;;;;1.23;0.82;;;11.00;99.90;;;;;;5008742;28;20280;-68
2023/03/09 03:36:03;;;;;;;0.90;0.70;;;10.90;99.90;;;;;;5007411;28;20265;-69
2023/03/09 03:38:29;;;;;;;0.70;0.50;;;11.10;99.90;;;;;;5008962;28;20240;-68
2023/03/09 03:40:55;;;;;;;1.03;0.50;;;11.00;99.90;;;;;;5002736;28;20478;-67
2023/03/09 03:43:20;;;;;;;0.67;0.50;;;10.90;99.90;;;;;;5009495;28;20216;-68
2023/03/09 03:45:46;;;;;;;0.60;0.50;;;11.00;99.90;;;;;;5008001;28;20213;-68
2023/03/09 03:48:12;;;;;;;0.70;0.50;;;10.90;99.90;;;;;;5008699;28;20675;-69
2023/03/09 03:50:37;;;;;;;1.20;0.50;;;10.70;99.90;;;;;;5007930;28;20227;-68
2023/03/09 03:53:03;;;;;;;0.60;0.50;;;11.00;99.90;;;;;;5007724;28;20607;-68
2023/03/09 03:55:29;;;;;;;1.17;0.60;;;10.90;99.90;;;;;;5007592;28;20244;-68
2023/03/09 03:57:55;;;;;;;0.70;0.50;;;10.70;99.90;;;;;;5009115;28;20181;-68
2023/03/09 04:00:21;;;;;;;0.70;0.50;;;10.70;99.90;;;;;;5008516;28;20235;-69
2023/03/09 04:02:46;;;;;;;1.80;0.60;;;10.80;99.90;;;;;;5007220;28;20217;-68
2023/03/09 04:05:12;;;;;;;1.10;0.60;;;10.90;99.90;;;;;;5006826;28;20565;-68
2023/03/09 04:07:38;;;;;;;1.10;0.60;;;10.80;99.90;;;;;;5008965;28;20634;-67
2023/03/09 04:10:04;;;;;;;1.77;0.70;;;10.60;99.90;;;;;;5005396;28;20240;-68
2023/03/09 04:12:30;;;;;;;2.28;1.17;;;10.50;99.90;;;;;;5008309;28;20213;-68
2023/03/09 04:14:55;;;;;;;1.30;0.60;;;10.60;99.90;;;;;;5007166;28;20268;-68
2023/03/09 04:17:21;;;;;;;6.53;0.83;;;10.60;99.90;;;;;;5008559;28;20711;-68
2023/03/09 04:19:48;;;;;;;1.57;1.00;;;10.70;99.90;;;;;;5006680;28;20200;-68
2023/03/09 04:22:13;;;;;;;2.92;1.10;;;10.60;99.90;;;;;;5009528;28;20188;-67
2023/03/09 04:24:39;;;;;;;6.60;0.90;;;10.50;99.90;;;;;;5006610;28;20264;-68
2023/03/09 04:27:05;;;;;;;2.20;0.80;;;10.50;99.90;;;;;;5002893;28;20193;-68
2023/03/09 04:29:30;;;;;;;2.10;0.80;;;10.40;99.90;;;;;;5007528;28;20658;-68
2023/03/09 04:31:56;;;;;;;2.30;1.00;;;10.60;99.90;;;;;;5007087;28;20252;-68
2023/03/09 04:34:22;;;;;;;3.53;1.30;;;10.70;99.90;;;;;;5006594;28;20196;-68
2023/03/09 04:36:47;;;;;;;3.63;1.00;;;10.70;99.90;;;;;;5008341;28;20194;-68
2023/03/09 04:39:13;;;;;;;4.40;1.33;;;10.70;99.90;;;;;;5007424;28;20311;-68
2023/03/09 04:41:39;;;;;;;2.83;1.20;;;10.60;99.90;;;;;;5008634;28;20276;-68
2023/03/09 04:44:04;;;;;;;2.20;0.97;;;10.40;99.90;;;;;;5008584;28;20629;-67
2023/03/09 04:46:30;;;;;;;4.40;1.70;;;10.50;99.90;;;;;;5008075;28;20220;-68
2023/03/09 04:48:56;;;;;;;2.80;1.33;;;10.60;99.90;;;;;;5005541;28;20586;-68
2023/03/09 04:51:21;;;;;;;2.43;1.30;;;10.60;99.90;;;;;;5008265;28;20208;-68
2023/03/09 04:53:47;;;;;;;6.07;1.37;;;10.50;99.90;;;;;;5007186;28;20216;-68
2023/03/09 04:56:13;;;;;;;3.20;1.57;;;10.50;99.90;;;;;;5039805;28;20204;-68
2023/03/09 04:58:38;;;;;;;2.40;1.33;;;10.70;99.90;;;;;;5006563;28;20620;-68
2023/03/09 05:01:04;;;;;;;3.07;1.33;;;10.60;99.90;;;;;;5008701;28;20239;-67
2023/03/09 05:03:30;;;;;;;4.60;1.67;;;10.50;99.90;;;;;;5008143;28;20196;-68
2023/03/09 05:05:56;;;;;;;3.07;1.57;;;10.50;99.90;;;;;;5021636;28;20535;-68
2023/03/09 05:08:21;;;;;;;3.93;1.40;;;10.60;99.90;;;;;;5007170;28;20443;-68
2023/03/09 05:10:47;;;;;;;2.87;1.57;;;10.40;99.90;;;;;;5006261;28;20279;-69
2023/03/09 05:13:13;;;;;;;1.33;0.97;;;10.60;99.90;;;;;;5010195;28;20241;-68
2023/03/09 05:15:40;;;;;;;3.55;1.70;;;10.50;99.90;;;;;;5008958;28;20558;-68
2023/03/09 05:18:06;;;;;;;2.80;1.63;;;10.30;99.90;;;;;;5009668;28;20342;-69
2023/03/09 05:20:32;;;;;;;2.97;1.20;;;10.40;99.90;;;;;;5010752;28;20213;-67
2023/03/09 05:22:59;;;;;;;4.35;1.80;;;10.50;99.90;;;;;;5011313;28;20199;-68
2023/03/09 05:25:25;;;;;;;3.95;1.35;;;10.40;99.90;;;;;;5009146;28;20193;-68
2023/03/09 05:27:51;;;;;;;3.70;2.57;;;10.50;99.90;;;;;;5011430;28;20200;-67
2023/03/09 05:30:18;;;;;;;5.40;1.30;;;10.50;99.90;;;;;;5010267;28;20205;-68
2023/03/09 05:32:43;;;;;;;5.25;1.85;;;10.70;99.90;;;;;;5008638;28;20211;-67
2023/03/09 05:35:09;;;;;;;4.47;1.90;;;10.80;99.90;;;;;;5009772;28;20201;-68
2023/03/09 05:37:35;;;;;;;4.87;1.80;;;10.80;99.90;;;;;;5011237;28;20675;-67
2023/03/09 05:40:01;;;;;;;5.50;2.20;;;10.90;99.90;;;;;;5007507;28;20665;-67
2023/03/09 05:42:26;;;;;;;4.63;1.43;;;10.60;99.90;;;;;;5011160;28;20524;-68
2023/03/09 05:44:52;;;;;;;2.87;1.60;;;10.80;99.90;;;;;;5009651;28;20185;-68
2023/03/09 05:47:18;;;;;;;5.20;2.00;;;10.60;99.90;;;;;;5010708;28;20190;-68
2023/03/09 05:49:43;;;;;;;4.90;1.90;;;10.60;99.90;;;;;;5010958;28;20205;-68
2023/03/09 05:52:09;;;;;;;4.30;2.10;;;10.70;99.90;;;;;;5009259;28;20683;-68
2023/03/09 05:54:35;;;;;;;2.87;2.17;;;10.80;99.90;;;;;;5009397;28;20189;-69
2023/03/09 05:57:01;;;;;;;3.42;2.08;;;10.80;99.90;;;;;;5009716;28;20653;-69
2023/03/09 05:59:26;;;;;;;5.70;2.07;;;10.60;99.90;;;;;;5009064;28;20252;-69
2023/03/09 06:01:52;;;;;;;4.60;2.17;;;10.60;99.90;;;;;;5009436;28;20224;-68
2023/03/09 06:04:17;;;;;;;4.97;1.80;;;10.80;99.90;;;;;;5005768;28;20850;-67
2023/03/09 06:06:43;;;;;;;4.37;2.10;;;10.50;99.90;;;;;;5008498;28;20200;-67
2023/03/09 06:09:09;;;;;;;4.57;2.07;;;10.70;99.90;;;;;;5006121;28;20213;-67
2023/03/09 06:11:34;;;;;;;5.27;2.27;;;10.50;99.90;;;;;;5009404;28;20300;-67
2023/03/09 06:14:00;;;;;;;4.47;1.80;;;10.40;99.90;;;;;;5007402;28;20192;-67
2023/03/09 06:16:26;;;;;;;5.33;1.90;;;10.60;99.90;;;;;;5006688;28;20184;-68
2023/03/09 06:18:54;;;;;;;2.72;1.45;;;10.60;99.90;;;;;;5009875;28;20731;-68
2023/03/09 06:21:20;;;;;;;7.25;1.80;;;10.90;99.90;;;;;;5009701;28;20571;-68
2023/03/09 06:23:46;;;;;;;2.92;2.05;;;10.70;99.90;;;;;;5007469;28;20193;-68
2023/03/09 06:26:13;;;;;;;3.53;1.40;;;10.90;99.90;;;;;;5008543;28;20183;-67
2023/03/09 06:28:39;;;;;;;6.50;2.80;;;11.00;99.90;;;;;;5008246;28;20190;-67
2023/03/09 06:31:06;;;;;;;6.07;2.70;;;11.00;99.90;;;;;;5009098;28;20250;-68
2023/03/09 06:33:32;;;;;;;4.35;1.83;;;11.10;99.90;;;;;;5007760;28;20185;-68
2023/03/09 06:36:01;;;;;;;4.57;2.00;;;11.10;99.90;;;;;;5006867;28;20196;-67
2023/03/09 06:38:26;;;;;;;3.88;1.70;;;11.20;99.90;;;;;;5012610;28;20182;-68
2023/03/09 06:40:55;;;;;;;4.70;1.73;;;11.40;99.90;;;;;;5007584;28;20802;-68
2023/03/09 06:43:21;;;;;;;2.33;1.50;;;11.40;99.90;;;;;;5010341;28;20235;-67
2023/03/09 06:45:47;;;;;;;4.15;1.80;;;11.40;99.90;;;;;;5008823;28;20175;-67
2023/03/09 06:48:13;;;;;;;5.40;1.27;;;11.30;99.90;;;;;;5006932;28;20248;-67
2023/03/09 06:50:39;;;;;;;5.10;1.73;;;11.40;99.90;;;;;;5008414;28;20207;-67
2023/03/09 06:53:04;;;;;;;5.30;1.40;;;11.40;99.90;;;;;;5009333;28;20683;-67
2023/03/09 06:55:30;;;;;;;6.90;1.73;;;11.40;99.90;;;;;;5009865;28;20198;-68
2023/03/09 06:57:56;;;;;;;4.03;1.40;;;11.40;99.90;;;;;;5008450;28;20205;-68
2023/03/09 07:00:22;;;;;;;5.70;2.17;;;11.30;99.90;;;;;;5009480;28;20467;-67
2023/03/09 07:02:48;;;;;;;2.95;1.35;;;11.40;99.90;;;;;;5010113;28;20190;-68
2023/03/09 07:05:14;;;;;;;4.20;1.70;;;11.50;99.90;;;;;;5007069;28;20190;-67
2023/03/09 07:07:42;;;;;;;4.57;1.87;;;11.60;99.90;;;;;;5007519;28;20258;-67
2023/03/09 07:10:09;;;;;;;5.18;1.42;;;11.50;99.90;;;;;;5007776;28;20205;-68
2023/03/09 07:12:35;;;;;;;3.45;1.50;;;11.50;99.90;;;;;;5008494;28;20210;-68
2023/03/09 07:15:01;;;;;;;2.60;1.30;;;10.90;99.90;;;;;;5009390;28;20297;-67
2023/03/09 07:17:26;;;;;;;4.03;1.30;;;11.60;99.90;;;;;;5008279;28;20648;-67
2023/03/09 07:19:52;;;;;;;3.10;1.13;;;11.60;99.90;;;;;;5006813;28;20221;-68
2023/03/09 07:22:18;;;;;;;2.23;1.80;;;12.00;99.90;;;;;;5009765;28;20191;-68
2023/03/09 07:24:44;;;;;;;3.63;0.97;;;11.90;99.90;;;;;;5008811;28;20615;-68
2023/03/09 07:27:09;;;;;;;2.47;1.40;;;12.40;99.90;;;;;;5008990;28;21032;-67
2023/03/09 07:29:35;;;;;;;2.60;1.93;;;12.50;99.90;;;;;;5009623;28;20300;-68
2023/03/09 07:32:04;;;;;;;3.63;1.50;;;13.20;99.90;;;;;;5008369;28;20576;-68
2023/03/09 07:34:33;;;;;;;2.55;1.20;;;13.70;99.90;;;;;;5006806;28;20447;-68
2023/03/09 07:37:00;;;;;;;2.95;1.58;;;14.50;98.50;;;;;;5008741;28;20201;-67
2023/03/09 07:39:26;;;;;;;3.60;1.30;;;15.50;97.00;;;;;;5008155;28;20278;-67
2023/03/09 07:41:52;;;;;;;4.78;1.13;;;16.00;95.50;;;;;;5010188;28;20264;-67
2023/03/09 07:44:18;;;;;;;1.97;1.17;;;16.50;94.20;;;;;;5010076;28;20597;-67
2023/03/09 07:46:43;;;;;;;4.93;1.50;;;17.20;92.90;;;;;;5009903;28;20198;-67
2023/03/09 07:49:09;;;;;;;4.27;2.07;;;16.50;92.60;;;;;;5007053;28;21894;-67
2023/03/09 07:51:37;;;;;;;2.05;1.40;;;16.40;93.50;;;;;;5008646;28;20650;-67
2023/03/09 07:54:05;;;;;;;2.97;1.10;;;15.50;93.80;;;;;;5007278;28;20273;-67
2023/03/09 07:56:31;;;;;;;3.95;1.30;;;15.90;94.30;;;;;;5001236;28;20183;-67
2023/03/09 07:58:56;;;;;;;2.58;1.15;;;15.20;94.20;;;;;;5006456;28;20229;-67
2023/03/09 08:01:23;;;;;;;1.67;1.20;;;14.80;94.90;;;;;;5008793;28;20194;-67
2023/03/09 08:03:49;;;;;;;2.90;1.42;;;14.40;95.00;;;;;;5004719;28;20195;-67
2023/03/09 08:06:15;;;;;;;3.03;1.30;;;14.70;95.40;;;;;;5008985;28;20252;-67
2023/03/09 08:08:41;;;;;;;3.30;1.25;;;15.20;94.60;;;;;;5006745;28;20492;-68
2023/03/09 08:11:07;;;;;;;3.57;1.33;;;15.80;93.90;;;;;;5008671;28;20250;-68
2023/03/09 08:13:33;;;;;;;3.80;1.80;;;15.50;93.60;;;;;;5009055;28;20183;-68
2023/03/09 08:16:02;;;;;;;6.63;2.00;;;15.50;94.00;;;;;;5008104;28;20228;-68
2023/03/09 08:18:28;;;;;;;3.58;1.65;;;15.10;94.20;;;;;;5005452;28;20707;-68
2023/03/09 08:20:54;;;;;;;4.07;1.80;;;14.10;94.30;;;;;;5005020;28;20178;-68
2023/03/09 08:23:19;;;;;;;3.97;1.47;;;14.80;95.40;;;;;;5009964;28;20693;-68
2023/03/09 08:25:53;;;;;;;1.93;1.00;;;14.70;94.70;;;;;;5006964;28;20183;-68
2023/03/09 08:28:19;;;;;;;1.88;1.20;;;15.00;94.60;;;;;;5022546;28;20207;-67
2023/03/09 08:30:44;;;;;;;4.50;1.30;;;15.00;94.70;;;;;;5009576;28;20282;-67
2023/03/09 08:33:10;;;;;;;4.00;1.20;;;15.00;94.80;;;;;;5009707;28;20211;-67
2023/03/09 08:35:35;;;;;;;2.50;1.10;;;15.10;94.90;;;;;;5008334;28;20214;-68
2023/03/09 08:38:01;;;;;;;7.03;1.23;;;15.20;94.70;;;;;;5008379;28;20183;-67
2023/03/09 08:40:27;;;;;;;5.33;1.43;;;15.10;95.00;;;;;;5007633;28;20203;-67
2023/03/09 08:42:53;;;;;;;4.82;1.20;;;15.30;94.60;;;;;;5008236;28;20297;-67
2023/03/09 08:45:18;;;;;;;2.20;1.20;;;15.20;94.50;;;;;;5006343;28;20728;-67
2023/03/09 08:47:44;;;;;;;9.90;1.93;;;15.10;94.60;;;;;;5006442;28;20225;-67
2023/03/09 08:50:10;;;;;;;3.27;1.10;;;15.00;94.80;;;;;;5007990;28;20704;-67
2023/03/09 08:52:39;;;;;;;1.90;1.00;;;15.00;94.70;;;;;;5010766;28;20275;-67
2023/03/09 08:55:07;;;;;;;2.10;1.17;;;15.50;94.70;;;;;;5011255;28;20179;-67
2023/03/09 08:57:33;;;;;;;2.85;0.85;;;15.60;93.50;;;;;;5011602;28;20530;-67
2023/03/09 08:59:59;;;;;;;4.10;1.17;;;16.00;93.80;;;;;;5011285;28;20582;-67
2023/03/09 09:02:25;;;;;;;3.10;1.07;;;16.80;93.30;;;;;;5012371;28;20190;-68
2023/03/09 09:04:51;;;;;;;2.53;1.20;;;16.70;92.60;;;;;;5012052;28;20276;-69
2023/03/09 09:07:18;;;;;;;2.63;1.00;;;17.10;92.00;;;;;;5011679;28;20683;-68
2023/03/09 09:09:44;;;;;;;2.08;1.17;;;18.10;90.90;;;;;;5009937;28;20225;-68
2023/03/09 09:12:10;;;;;;;3.40;1.30;;;17.80;90.60;;;;;;5012147;28;21829;-68
2023/03/09 09:14:40;;;;;;;1.40;0.95;;;17.30;90.60;;;;;;5012623;28;20437;-68
2023/03/09 09:17:08;;;;;;;1.92;1.20;;;16.70;93.10;;;;;;5010770;28;20179;-68
2023/03/09 09:19:37;;;;;;;2.85;1.30;;;15.70;95.00;;;;;;5010774;28;20211;-68
2023/03/09 09:22:03;;;;;;;1.85;1.20;;;15.30;96.80;;;;;;5012072;28;20323;-68
2023/03/09 09:24:36;;;;;;;3.38;1.25;;;14.80;98.40;;;;;;5009600;28;20277;-68
2023/03/09 09:27:06;;;;;;;3.72;1.20;;;14.00;99.80;;;;;;5010807;28;20273;-68
2023/03/09 09:29:33;;;;;;;4.07;1.40;;;13.80;99.90;;;;;;5026082;28;20218;-68
2023/03/09 09:31:59;;;;;;;2.28;1.00;;;13.50;99.90;;;;;;5010895;28;20239;-68
2023/03/09 09:34:24;;;;;;;5.32;1.83;;;13.70;99.90;;;;;;5005290;28;20759;-68
2023/03/09 09:36:50;;;;;;;1.80;0.97;;;13.90;99.90;;;;;;5009140;28;20191;-68
2023/03/09 09:39:16;;;;;;;2.83;1.20;;;14.50;99.90;;;;;;5010906;28;20771;-68
2023/03/09 09:41:43;;;;;;;2.03;0.90;;;14.10;99.90;;;;;;5010975;28;20218;-68
2023/03/09 09:44:15;;;;;;;4.20;1.85;;;14.70;99.90;;;;;;5012176;28;20198;-68
2023/03/09 09:46:41;;;;;;;2.35;1.02;;;14.70;99.90;;;;;;5010276;28;20195;-68
2023/03/09 09:49:14;;;;;;;1.10;1.00;;;14.80;99.90;;;;;;5010089;28;20586;-68
2023/03/09 09:52:08;;;;;;;3.58;1.33;;;15.20;98.80;;;;;;5008121;28;20218;-68
2023/03/09 09:54:41;;;;;;;3.40;1.23;;;14.70;98.30;;;;;;5007567;28;20262;-68
2023/03/09 09:57:17;;;;;;;1.95;1.10;;;14.80;98.80;;;;;;5024637;28;20187;-68
2023/03/09 09:59:54;;;;;;;1.38;1.13;;;14.70;99.10;;;;;;5011320;28;20263;-68
2023/03/09 10:02:29;;;;;;;2.50;1.10;;;14.70;99.50;;;;;;5009020;28;20293;-68
2023/03/09 10:05:05;;;;;;;4.00;1.30;;;14.50;99.40;;;;;;5009729;28;20182;-68
2023/03/09 10:07:35;;;;;;;4.70;1.52;;;14.10;99.50;;;;;;5009993;28;20722;-68
2023/03/09 10:10:04;;;;;;;1.30;1.20;;;14.30;99.80;;;;;;5008084;28;20210;-68
2023/03/09 10:12:31;;;;;;;3.30;1.00;;;14.50;99.70;;;;;;5010530;28;20692;-68
2023/03/09 10:15:04;;;;;;;7.47;1.98;;;14.80;99.40;;;;;;5010692;28;20185;-68
2023/03/09 10:17:47;;;;;;;6.38;1.70;;;14.80;99.40;;;;;;5008295;28;20252;-68
2023/03/09 10:20:25;;;;;;;3.58;1.35;;;15.10;98.70;;;;;;5008613;28;20234;-68
2023/03/09 10:22:53;;;;;;;3.85;1.65;;;14.80;98.60;;;;;;5010976;28;20186;-68
2023/03/09 10:25:22;;;;;;;2.63;1.05;;;14.80;98.60;;;;;;5006667;28;20526;-68
2023/03/09 10:27:55;;;;;;;3.53;1.13;;;14.40;98.70;;;;;;5010934;28;20544;-68
2023/03/09 10:30:27;;;;;;;2.60;1.30;;;14.60;99.20;;;;;;5005135;28;20257;-68
2023/03/09 10:33:04;;;;;;;3.55;1.60;;;14.80;99.00;;;;;;5007029;28;20203;-68
2023/03/09 10:35:43;;;;;;;3.25;1.80;;;15.30;98.30;;;;;;5007128;28;20191;-68
2023/03/09 10:38:16;;;;;;;1.48;0.82;;;15.70;97.90;;;;;;5011450;28;20187;-69
2023/03/09 10:40:51;;;;;;;2.22;0.80;;;15.70;96.50;;;;;;5008533;28;20203;-68
2023/03/09 10:43:23;;;;;;;1.73;1.40;;;15.90;96.70;;;;;;5009740;28;20197;-68
2023/03/09 10:45:49;;;;;;;2.03;1.40;;;16.10;95.90;;;;;;5008993;28;20194;-68
2023/03/09 10:48:25;;;;;;;2.63;2.10;;;16.50;95.60;;;;;;5009760;28;20248;-68
2023/03/09 10:50:59;;;;;;;1.65;1.00;;;16.60;95.10;;;;;;5007269;28;20571;-68
2023/03/09 10:53:41;;;;;;;1.92;1.00;;;16.80;94.50;;;;;;5007671;28;20190;-69
2023/03/09 10:56:20;;;;;;;1.65;1.10;;;17.00;94.30;;;;;;5008823;28;20186;-69
2023/03/09 10:58:46;;;;;;;1.77;1.27;;;17.10;93.30;;;;;;5023837;28;20224;-69
2023/03/09 11:01:11;;;;;;;3.00;1.30;;;17.40;92.60;;;;;;5009222;28;20178;-69
2023/03/09 11:03:41;;;;;;;5.00;1.20;;;17.30;91.80;;;;;;5007983;28;20508;-69
2023/03/09 11:06:11;;;;;;;2.53;1.52;;;17.10;91.30;;;;;;5008705;28;20637;-69
2023/03/09 11:08:37;;;;;;;2.08;1.00;;;17.00;91.00;;;;;;5009058;28;20186;-69
2023/03/09 11:11:06;;;;;;;4.38;2.40;;;17.40;91.40;;;;;;5007511;28;20710;-67
2023/03/09 11:13:32;;;;;;;3.47;1.42;;;18.30;90.40;;;;;;5009854;28;20206;-69
2023/03/09 11:16:26;;;;;;;3.60;1.60;;;19.00;87.80;;;;;;5008673;28;20229;-69
2023/03/09 11:19:14;;;;;;;1.83;1.45;;;19.10;86.20;;;;;;5009707;28;20203;-67
2023/03/09 11:22:01;;;;;;;3.80;1.30;;;19.10;86.00;;;;;;5010153;28;20213;-69
2023/03/09 11:24:37;;;;;;;2.40;1.55;;;19.30;84.10;;;;;;5006107;28;20193;-68
2023/03/09 11:27:08;;;;;;;4.43;1.45;;;18.80;84.40;;;;;;5007448;28;20209;-69
2023/03/09 11:29:34;;;;;;;2.33;1.10;;;19.20;85.00;;;;;;5007385;28;20207;-67
2023/03/09 11:32:00;;;;;;;2.07;1.30;;;19.40;83.50;;;;;;5009467;28;20292;-69
2023/03/09 11:34:31;;;;;;;4.80;1.27;;;19.40;83.80;;;;;;5009659;28;20246;-69
2023/03/09 11:37:05;;;;;;;4.28;1.70;;;19.30;82.10;;;;;;5008557;28;20664;-69
2023/03/09 11:39:35;;;;;;;2.17;1.00;;;18.50;83.20;;;;;;5007635;28;21079;-68
2023/03/09 11:42:05;;;;;;;3.95;1.35;;;18.10;84.30;;;;;;5009072;28;20186;-69
2023/03/09 11:44:37;;;;;;;3.63;1.17;;;18.70;84.80;;;;;;5008930;28;20548;-69
2023/03/09 11:47:28;;;;;;;3.42;1.40;;;18.60;82.60;;;;;;5008316;28;20183;-68
2023/03/09 11:50:00;;;;;;;2.03;1.25;;;18.70;82.10;;;;;;5003961;28;20214;-69
2023/03/09 11:52:31;;;;;;;3.38;1.50;;;17.80;82.50;;;;;;5007883;28;20214;-68
2023/03/09 11:55:04;;;;;;;4.07;1.65;;;17.60;85.00;;;;;;5007752;28;20218;-68
2023/03/09 11:57:33;;;;;;;2.83;1.83;;;17.20;85.80;;;;;;5023361;28;20186;-68
2023/03/09 12:00:05;;;;;;;2.63;1.80;;;17.00;86.40;;;;;;5008256;28;20211;-68
2023/03/09 12:02:44;;;;;;;1.30;1.00;;;17.30;86.70;;;;;;5008773;28;20557;-68
2023/03/09 12:05:12;;;;;;;3.38;1.80;;;16.80;86.70;;;;;;5006930;28;20194;-68
2023/03/09 12:08:02;;;;;;;3.05;1.90;;;16.20;86.90;;;;;;5008658;28;20201;-69
2023/03/09 12:10:31;;;;;;;3.72;1.08;;;16.20;88.70;;;;;;5004945;28;20721;-68
2023/03/09 12:13:45;;;;;;;3.90;1.20;;;16.00;89.40;;;;;;5007959;28;20214;-66
2023/03/09 12:16:28;;;;;;;1.48;1.20;;;16.00;90.20;;;;;;4988495;28;20203;-68
2023/03/09 12:19:10;;;;;;;2.97;1.60;;;15.50;90.50;;;;;;5006597;28;20414;-68
2023/03/09 12:21:42;;;;;;;1.92;0.90;;;15.90;91.10;;;;;;5008841;28;20191;-69
2023/03/09 12:24:39;;;;;;;3.20;0.95;;;16.30;90.40;;;;;;5006679;28;20230;-69
2023/03/09 12:27:23;;;;;;;2.95;1.23;;;16.30;90.00;;;;;;5006273;28;20236;-69
2023/03/09 12:30:14;;;;;;;3.05;0.98;;;16.60;89.40;;;;;;5007431;28;20920;-69
2023/03/09 12:32:42;;;;;;;4.70;1.00;;;16.70;89.40;;;;;;5006622;28;20210;-69
2023/03/09 12:35:30;;;;;;;5.78;1.70;;;16.70;88.00;;;;;;5007468;28;20732;-66
2023/03/09 12:38:20;;;;;;;2.38;1.25;;;17.00;88.50;;;;;;5008062;28;20280;-68
2023/03/09 12:40:47;;;;;;;2.45;1.77;;;16.40;89.50;;;;;;5005567;28;20187;-68
2023/03/09 12:43:15;;;;;;;3.30;1.45;;;16.20;89.80;;;;;;5008191;28;20187;-68
2023/03/09 12:45:43;;;;;;;3.35;1.38;;;16.50;90.00;;;;;;5004961;28;20290;-69
2023/03/09 12:48:32;;;;;;;1.88;1.00;;;16.20;90.20;;;;;;5007368;28;20205;-68
2023/03/09 12:51:30;;;;;;;1.92;1.48;;;16.20;90.40;;;;;;5007016;28;20326;-68
2023/03/09 12:54:05;;;;;;;3.30;1.40;;;16.20;90.30;;;;;;5037347;28;20189;-68
2023/03/09 12:56:33;;;;;;;2.65;0.90;;;16.30;90.40;;;;;;5007898;28;20289;-68